Time;durP1;ratioP1;P1;durP2;ratioP2;P2;SDS_P1;SDS_P2;PMS_P1;PMS_P2;Temp;Humidity;BMP_temperature;BMP_pressure;BME280_temperature;BME280_humidity;BME280_pressure;Samples;Min_cycle;Max_cycle;Signal;HPM_P1;HPM_P2
2023/01/21 00:02:04;;;;;;;20.45;8.70;;;0.10;1.00;;;;;;5071439;28;20478;-56
2023/01/21 00:04:33;;;;;;;18.10;8.40;;;0.20;1.00;;;;;;5071899;28;20458;-56
2023/01/21 00:06:59;;;;;;;17.33;9.00;;;0.20;1.00;;;;;;5071452;28;20725;-55
2023/01/21 00:09:24;;;;;;;18.03;8.47;;;0.30;1.00;;;;;;5071596;28;20407;-56
2023/01/21 00:11:50;;;;;;;20.80;9.23;;;0.20;1.00;;;;;;5071612;28;20824;-56
2023/01/21 00:14:15;;;;;;;17.90;8.90;;;0.20;1.00;;;;;;5070988;28;20729;-56
2023/01/21 00:16:41;;;;;;;16.83;8.13;;;1.00;1.00;;;;;;5071895;28;20380;-56
2023/01/21 00:19:07;;;;;;;18.47;7.67;;;0.20;1.00;;;;;;5071059;28;20411;-55
2023/01/21 00:21:32;;;;;;;15.38;7.80;;;0.20;1.00;;;;;;5060976;28;20476;-56
2023/01/21 00:23:58;;;;;;;18.73;7.43;;;0.20;1.00;;;;;;5041015;28;20383;-56
2023/01/21 00:26:23;;;;;;;16.67;7.87;;;0.20;1.00;;;;;;5031370;28;20406;-56
2023/01/21 00:28:49;;;;;;;17.15;8.85;;;0.30;1.00;;;;;;5035840;28;20815;-56
2023/01/21 00:31:15;;;;;;;17.73;7.85;;;0.30;1.00;;;;;;5050879;28;20378;-56
2023/01/21 00:33:40;;;;;;;17.67;8.40;;;0.30;1.00;;;;;;5051557;28;20885;-56
2023/01/21 00:36:11;;;;;;;18.27;8.57;;;0.40;1.00;;;;;;5050744;28;20516;-56
2023/01/21 00:38:37;;;;;;;19.17;8.48;;;0.40;1.00;;;;;;5042423;28;20441;-56
2023/01/21 00:41:11;;;;;;;15.77;8.00;;;0.40;1.00;;;;;;5030499;28;20395;-56
2023/01/21 00:43:38;;;;;;;16.38;7.90;;;0.30;1.00;;;;;;5031286;28;20445;-56
2023/01/21 00:46:04;;;;;;;17.58;8.32;;;0.40;1.00;;;;;;5030564;28;20395;-56
2023/01/21 00:48:30;;;;;;;15.90;8.15;;;0.50;1.00;;;;;;5031311;28;20721;-56
2023/01/21 00:50:59;;;;;;;16.10;8.02;;;0.40;1.00;;;;;;5029981;28;20461;-55
2023/01/21 00:53:25;;;;;;;19.65;8.52;;;0.40;1.00;;;;;;5030968;28;20387;-56
2023/01/21 00:55:51;;;;;;;15.90;7.50;;;0.40;1.00;;;;;;5033727;28;20399;-56
2023/01/21 00:58:17;;;;;;;17.30;7.70;;;0.40;99.90;;;;;;5049090;28;21248;-56
2023/01/21 01:00:42;;;;;;;17.50;9.10;;;0.40;99.90;;;;;;5051155;28;20381;-56
2023/01/21 01:03:08;;;;;;;20.42;8.40;;;0.50;99.90;;;;;;5050302;28;20392;-56
2023/01/21 01:05:34;;;;;;;17.65;8.40;;;0.30;99.90;;;;;;5050743;28;20413;-56
2023/01/21 01:07:59;;;;;;;14.70;7.23;;;0.40;99.90;;;;;;5050534;28;20413;-57
2023/01/21 01:10:25;;;;;;;15.23;7.30;;;0.40;99.90;;;;;;5030696;28;20387;-56
2023/01/21 01:12:51;;;;;;;13.50;6.65;;;0.30;99.90;;;;;;5030687;28;20383;-56
2023/01/21 01:15:17;;;;;;;13.82;7.38;;;0.30;99.90;;;;;;5030303;28;20379;-56
2023/01/21 01:17:43;;;;;;;16.73;8.00;;;0.40;99.90;;;;;;5030673;28;20895;-56
2023/01/21 01:20:09;;;;;;;16.93;7.40;;;0.40;99.90;;;;;;5029760;28;20379;-56
2023/01/21 01:22:35;;;;;;;16.20;8.20;;;0.30;99.90;;;;;;5030615;28;20748;-56
2023/01/21 01:25:00;;;;;;;16.00;8.07;;;0.20;99.90;;;;;;5029642;28;20502;-56
2023/01/21 01:27:28;;;;;;;17.27;8.70;;;0.20;99.90;;;;;;5029937;28;20386;-56
2023/01/21 01:29:53;;;;;;;16.92;7.65;;;0.20;99.90;;;;;;5030809;28;20383;-56
2023/01/21 01:32:19;;;;;;;18.77;9.18;;;0.20;99.90;;;;;;5029677;28;21090;-56
2023/01/21 01:34:45;;;;;;;16.02;7.90;;;0.20;99.90;;;;;;5029935;28;20387;-56
2023/01/21 01:37:11;;;;;;;15.38;8.20;;;0.20;99.90;;;;;;5029702;28;20384;-56
2023/01/21 01:39:36;;;;;;;18.10;8.70;;;0.20;99.90;;;;;;5030071;28;20387;-55
2023/01/21 01:42:02;;;;;;;17.17;9.00;;;0.30;99.90;;;;;;5029863;28;20413;-56
2023/01/21 01:44:54;;;;;;;19.42;8.73;;;0.40;1.00;;;;;;5030453;28;20733;-56
2023/01/21 01:47:26;;;;;;;17.92;9.15;;;0.40;1.00;;;;;;5029560;28;20389;-56
2023/01/21 01:49:52;;;;;;;16.60;8.50;;;0.30;1.00;;;;;;5030206;28;20867;-56
2023/01/21 01:52:18;;;;;;;18.25;8.80;;;0.30;1.00;;;;;;5029354;28;20383;-56
2023/01/21 01:54:49;;;;;;;22.10;9.40;;;0.30;99.90;;;;;;5045457;28;20470;-56
2023/01/21 01:57:19;;;;;;;19.00;8.45;;;0.30;1.00;;;;;;5027733;28;20799;-56
2023/01/21 01:59:46;;;;;;;17.20;8.25;;;0.60;1.00;;;;;;5029817;28;20426;-56
2023/01/21 02:02:15;;;;;;;16.55;8.90;;;0.10;1.00;;;;;;5028888;28;20783;-56
2023/01/21 02:04:53;;;;;;;19.38;8.70;;;0.10;1.00;;;;;;5030165;28;20849;-56
2023/01/21 02:07:23;;;;;;;21.20;9.35;;;0.10;1.00;;;;;;5029290;28;20931;-56
2023/01/21 02:09:49;;;;;;;19.60;9.15;;;0.00;1.00;;;;;;5029481;28;20395;-56
2023/01/21 02:12:16;;;;;;;16.67;8.98;;;-0.10;1.00;;;;;;5029060;28;20425;-56
2023/01/21 02:14:45;;;;;;;20.67;9.10;;;-0.30;1.00;;;;;;5029753;28;20383;-56
2023/01/21 02:17:27;;;;;;;20.08;9.27;;;-0.30;1.00;;;;;;5028557;28;20371;-56
2023/01/21 02:20:49;;;;;;;22.60;9.43;;;-0.30;1.00;;;;;;5029545;28;20406;-56
2023/01/21 02:23:23;;;;;;;16.92;9.00;;;-0.30;1.00;;;;;;5028756;28;20391;-55
2023/01/21 02:25:54;;;;;;;20.80;9.10;;;-0.30;1.00;;;;;;5029573;28;20418;-55
2023/01/21 02:28:30;;;;;;;20.85;9.73;;;-0.40;1.00;;;;;;5028902;28;20398;-55
2023/01/21 02:31:30;;;;;;;19.13;8.95;;;-0.50;1.00;;;;;;5029626;28;20383;-55
2023/01/21 02:34:01;;;;;;;18.90;8.88;;;-0.50;18.70;;;;;;5029649;28;20405;-55
2023/01/21 02:37:00;;;;;;;20.10;9.02;;;-0.50;90.20;;;;;;5029630;28;20497;-56
2023/01/21 02:39:40;;;;;;;23.23;10.35;;;-0.50;99.80;;;;;;5029289;28;20383;-55
2023/01/21 02:42:20;;;;;;;16.52;8.60;;;-0.50;99.90;;;;;;5028510;28;20422;-55
2023/01/21 02:45:08;;;;;;;29.92;15.15;;;-0.60;99.90;;;;;;5029528;28;20379;-55
2023/01/21 02:47:54;;;;;;;20.07;8.97;;;-0.60;99.90;;;;;;5028055;28;21117;-55
2023/01/21 02:50:27;;;;;;;18.33;8.77;;;-0.70;99.90;;;;;;5028529;28;20399;-55
2023/01/21 02:52:55;;;;;;;18.15;8.40;;;-0.80;1.00;;;;;;5029002;28;20745;-55
2023/01/21 02:55:26;;;;;;;17.60;9.63;;;-0.90;1.00;;;;;;5028198;28;21176;-55
2023/01/21 02:57:55;;;;;;;18.30;9.10;;;-0.90;40.90;;;;;;5028951;28;20422;-55
2023/01/21 03:00:28;;;;;;;20.48;10.02;;;-0.90;99.90;;;;;;5028568;28;20387;-55
2023/01/21 03:03:31;;;;;;;17.13;8.82;;;-1.00;99.90;;;;;;5038529;28;20412;-55
2023/01/21 03:06:27;;;;;;;20.93;8.93;;;-1.10;99.90;;;;;;5048857;28;20878;-55
2023/01/21 03:08:58;;;;;;;16.67;8.90;;;-1.20;99.90;;;;;;5048898;28;20425;-55
2023/01/21 03:11:24;;;;;;;19.52;8.85;;;-1.20;1.00;;;;;;5048273;28;20385;-55
2023/01/21 03:16:59;;;;;;;16.23;8.20;;;-1.40;1.00;;;;;;5048793;28;20376;-55
2023/01/21 03:19:41;;;;;;;16.55;7.70;;;-1.50;1.00;;;;;;5048426;28;20377;-55
2023/01/21 03:22:21;;;;;;;16.05;7.47;;;-1.60;1.00;;;;;;5050391;28;20377;-55
2023/01/21 03:24:50;;;;;;;15.48;7.60;;;-1.70;1.00;;;;;;5052386;28;20427;-55
2023/01/21 03:27:22;;;;;;;18.60;8.45;;;-1.70;99.90;;;;;;5051545;28;20378;-55
2023/01/21 03:29:55;;;;;;;19.98;9.55;;;-1.70;99.90;;;;;;5051007;28;20459;-55
2023/01/21 03:32:21;;;;;;;20.63;10.00;;;-1.70;99.90;;;;;;5052077;28;20366;-55
2023/01/21 03:34:50;;;;;;;17.70;8.70;;;-1.70;99.90;;;;;;5052369;28;20386;-55
2023/01/21 03:37:36;;;;;;;19.98;9.50;;;-1.60;99.90;;;;;;5051759;28;20388;-55
2023/01/21 03:40:13;;;;;;;16.40;8.13;;;-1.60;99.90;;;;;;5052002;28;20435;-55
2023/01/21 03:42:40;;;;;;;19.58;9.48;;;-1.60;99.90;;;;;;5052476;28;20377;-55
2023/01/21 03:45:07;;;;;;;15.82;8.77;;;;;;;;;;5050046;28;20394;-55
2023/01/21 03:47:34;;;;;;;19.83;8.40;;;;;;;;;;5052100;28;20522;-55
2023/01/21 03:50:04;;;;;;;18.60;8.00;;;;;;;;;;5051969;28;20381;-55
2023/01/21 03:52:30;;;;;;;16.08;7.70;;;-1.90;1.00;;;;;;5051504;28;20893;-55
2023/01/21 03:54:56;;;;;;;18.02;8.90;;;-2.10;99.90;;;;;;5051582;28;20397;-55
2023/01/21 03:57:21;;;;;;;17.27;8.50;;;-2.20;1.00;;;;;;5051068;28;20381;-55
2023/01/21 03:59:47;;;;;;;16.43;7.60;;;-2.30;1.00;;;;;;5052271;28;20405;-55
2023/01/21 04:02:18;;;;;;;18.23;8.07;;;-2.30;99.90;;;;;;5051061;28;20387;-54
2023/01/21 04:04:43;;;;;;;16.20;8.13;;;-2.40;1.00;;;;;;5051576;28;20389;-55
2023/01/21 04:07:09;;;;;;;19.50;9.30;;;-2.40;13.10;;;;;;5051184;28;20381;-55
2023/01/21 04:09:34;;;;;;;21.57;9.07;;;-2.40;99.90;;;;;;5051722;28;20424;-55
2023/01/21 04:12:00;;;;;;;21.63;9.90;;;-2.30;1.00;;;;;;5051715;28;20384;-55
2023/01/21 04:14:26;;;;;;;19.10;8.67;;;-2.40;99.90;;;;;;5051407;28;20750;-55
2023/01/21 04:16:51;;;;;;;21.43;9.43;;;-2.30;99.90;;;;;;5051828;28;20378;-54
2023/01/21 04:19:17;;;;;;;19.73;8.60;;;-2.30;99.90;;;;;;5050923;28;20736;-54
2023/01/21 04:21:42;;;;;;;18.48;8.10;;;-2.30;99.90;;;;;;5050266;28;20381;-55
2023/01/21 04:24:08;;;;;;;16.00;7.87;;;-2.40;59.00;;;;;;5050655;28;20394;-54
2023/01/21 04:26:34;;;;;;;18.83;8.37;;;-2.50;1.00;;;;;;5051214;28;20381;-55
2023/01/21 04:28:59;;;;;;;19.17;8.77;;;-2.60;5.00;;;;;;5051162;28;20452;-54
2023/01/21 04:31:25;;;;;;;20.33;8.48;;;-2.60;99.90;;;;;;5050756;28;20377;-55
2023/01/21 04:33:50;;;;;;;18.13;8.67;;;-2.60;1.00;;;;;;5051472;28;20881;-55
2023/01/21 04:36:16;;;;;;;15.73;8.87;;;-2.60;99.90;;;;;;5050528;28;20476;-55
2023/01/21 04:38:41;;;;;;;16.38;8.27;;;-1.50;99.90;;;;;;5051095;28;20382;-55
2023/01/21 04:41:07;;;;;;;17.50;8.87;;;-2.50;99.90;;;;;;5050450;28;20859;-54
2023/01/21 04:43:32;;;;;;;16.57;8.47;;;-2.50;1.00;;;;;;5050980;28;20389;-55
2023/01/21 04:45:58;;;;;;;18.20;8.25;;;-2.60;99.90;;;;;;5050741;28;20443;-54
2023/01/21 04:48:24;;;;;;;18.93;8.83;;;-2.70;63.10;;;;;;5050371;28;20511;-55
2023/01/21 04:50:49;;;;;;;16.57;8.27;;;-2.80;99.90;;;;;;5051097;28;20373;-54
2023/01/21 04:53:15;;;;;;;18.92;8.30;;;-2.80;1.00;;;;;;5050280;28;20933;-55
2023/01/21 04:55:40;;;;;;;23.38;9.00;;;-2.80;1.00;;;;;;5050671;28;20413;-55
2023/01/21 04:58:06;;;;;;;14.77;8.03;;;-2.90;99.90;;;;;;5049850;28;20424;-55
2023/01/21 05:00:32;;;;;;;17.27;8.53;;;-2.80;99.90;;;;;;5050674;28;20416;-55
2023/01/21 05:02:57;;;;;;;19.70;8.50;;;-2.80;99.90;;;;;;5050475;28;20388;-55
2023/01/21 05:05:23;;;;;;;23.77;10.10;;;-2.80;99.90;;;;;;5049493;28;20494;-55
2023/01/21 05:07:52;;;;;;;15.93;8.93;;;-2.70;99.90;;;;;;5050387;28;20420;-55
2023/01/21 05:10:18;;;;;;;19.05;9.77;;;-2.70;1.00;;;;;;5049381;28;20707;-54
2023/01/21 05:12:44;;;;;;;19.08;8.77;;;-2.60;1.00;;;;;;5050514;28;20473;-54
2023/01/21 05:15:10;;;;;;;20.20;9.73;;;-2.60;1.00;;;;;;5049475;28;20902;-55
2023/01/21 05:17:35;;;;;;;18.02;9.63;;;-2.40;99.90;;;;;;5050757;28;20500;-54
2023/01/21 05:20:01;;;;;;;19.38;10.00;;;-2.50;99.90;;;;;;5050510;28;20461;-54
2023/01/21 05:22:27;;;;;;;22.90;10.27;;;-2.40;1.00;;;;;;5050008;28;20443;-55
2023/01/21 05:24:52;;;;;;;18.47;9.87;;;-2.50;99.90;;;;;;5050286;28;20405;-55
2023/01/21 05:27:20;;;;;;;20.43;10.67;;;-2.40;99.90;;;;;;5049320;28;20838;-55
2023/01/21 05:29:46;;;;;;;19.80;10.30;;;-2.40;99.90;;;;;;5050504;28;20439;-55
2023/01/21 05:32:13;;;;;;;22.40;10.75;;;-2.30;99.90;;;;;;5049084;28;20489;-55
2023/01/21 05:34:39;;;;;;;22.33;10.60;;;-2.30;99.90;;;;;;5050442;28;20468;-55
2023/01/21 05:37:04;;;;;;;25.03;12.10;;;-2.30;99.90;;;;;;5049580;28;20841;-55
2023/01/21 05:39:30;;;;;;;20.92;10.68;;;-2.30;99.90;;;;;;5049889;28;20390;-55
2023/01/21 05:41:56;;;;;;;23.80;11.23;;;-2.40;1.00;;;;;;5049696;28;20738;-55
2023/01/21 05:44:21;;;;;;;23.93;11.40;;;-2.40;1.00;;;;;;5048742;28;20396;-55
2023/01/21 05:46:47;;;;;;;21.83;11.10;;;-2.40;1.00;;;;;;5049423;28;20369;-55
2023/01/21 05:49:12;;;;;;;26.70;10.87;;;-2.30;1.00;;;;;;5048783;28;20405;-55
2023/01/21 05:51:38;;;;;;;23.53;11.50;;;-2.40;1.00;;;;;;5049831;28;20390;-55
2023/01/21 05:54:03;;;;;;;35.30;15.13;;;-2.40;91.30;;;;;;5049311;28;20452;-55
2023/01/21 05:56:29;;;;;;;29.65;12.52;;;-2.30;99.90;;;;;;5049397;28;20390;-55
2023/01/21 05:58:55;;;;;;;23.60;11.83;;;-2.20;99.90;;;;;;5049815;28;20425;-55
2023/01/21 06:01:20;;;;;;;41.40;18.13;;;-2.30;99.90;;;;;;5048816;28;20389;-55
2023/01/21 06:03:46;;;;;;;34.22;15.88;;;-2.20;99.90;;;;;;5049576;28;20369;-55
2023/01/21 06:06:11;;;;;;;28.33;14.17;;;-2.20;99.90;;;;;;5048665;28;20881;-55
2023/01/21 06:08:37;;;;;;;30.33;13.30;;;-2.20;99.90;;;;;;5049280;28;20409;-55
2023/01/21 06:11:02;;;;;;;27.58;12.77;;;-2.10;99.90;;;;;;5049298;28;20380;-55
2023/01/21 06:13:28;;;;;;;32.47;13.50;;;-2.00;52.80;;;;;;5048962;28;20381;-55
2023/01/21 06:15:55;;;;;;;33.20;14.17;;;-2.10;18.10;;;;;;5049320;28;20475;-55
2023/01/21 06:18:21;;;;;;;31.05;13.02;;;-2.10;48.70;;;;;;5048667;28;20398;-55
2023/01/21 06:20:46;;;;;;;31.75;13.07;;;-2.00;11.40;;;;;;5049607;28;20447;-55
2023/01/21 06:23:12;;;;;;;35.00;12.50;;;-1.90;1.00;;;;;;5048630;28;20727;-55
2023/01/21 06:25:39;;;;;;;32.08;13.38;;;-1.90;1.00;;;;;;5049229;28;20409;-55
2023/01/21 06:28:05;;;;;;;26.55;11.55;;;-1.80;1.00;;;;;;5048703;28;20425;-55
2023/01/21 06:30:31;;;;;;;31.67;11.90;;;-2.00;1.00;;;;;;5049034;28;20374;-55
2023/01/21 06:32:57;;;;;;;25.83;11.90;;;-2.10;1.00;;;;;;5048989;28;20380;-55
2023/01/21 06:35:23;;;;;;;30.00;13.05;;;-2.00;3.00;;;;;;5048566;28;21168;-55
2023/01/21 06:37:49;;;;;;;29.10;13.40;;;-2.00;1.00;;;;;;5049236;28;20793;-55
2023/01/21 06:40:14;;;;;;;32.30;12.93;;;-1.90;1.00;;;;;;5048472;28;20404;-55
2023/01/21 06:42:40;;;;;;;29.80;12.55;;;-1.40;1.00;;;;;;5049317;28;20380;-55
2023/01/21 06:45:06;;;;;;;28.15;11.68;;;-1.80;1.00;;;;;;5048509;28;20446;-56
2023/01/21 06:47:32;;;;;;;26.08;12.30;;;-1.80;99.90;;;;;;5049000;28;20384;-55
2023/01/21 06:49:57;;;;;;;26.17;11.47;;;-1.90;99.90;;;;;;5048983;28;20501;-55
2023/01/21 06:52:23;;;;;;;25.35;11.63;;;-2.00;99.90;;;;;;5048214;28;20946;-55
2023/01/21 06:54:49;;;;;;;27.98;11.77;;;-2.20;99.90;;;;;;5048883;28;20447;-55
2023/01/21 06:57:14;;;;;;;24.30;10.63;;;-2.10;99.90;;;;;;5044356;28;20488;-55
2023/01/21 06:59:40;;;;;;;27.33;11.40;;;-2.10;99.90;;;;;;5035003;28;20386;-55
2023/01/21 07:02:06;;;;;;;27.52;11.77;;;-2.10;99.90;;;;;;5032557;28;20450;-55
2023/01/21 07:04:32;;;;;;;30.20;12.27;;;-2.10;99.90;;;;;;5039407;28;20404;-55
2023/01/21 07:06:57;;;;;;;24.10;10.10;;;-1.90;99.90;;;;;;5051588;28;20754;-55
2023/01/21 07:09:23;;;;;;;28.27;12.07;;;;;;;;;;5046264;28;20409;-55
2023/01/21 07:11:49;;;;;;;24.45;11.63;;;-2.10;99.90;;;;;;5053098;28;20377;-55
2023/01/21 07:14:15;;;;;;;24.27;10.60;;;-2.20;99.90;;;;;;5052573;28;20933;-56
2023/01/21 07:16:40;;;;;;;31.40;12.50;;;-2.00;1.00;;;;;;5052885;28;20846;-55
2023/01/21 07:19:06;;;;;;;25.17;11.93;;;-1.90;99.90;;;;;;5052428;28;20437;-56
2023/01/21 07:21:32;;;;;;;29.65;13.38;;;-1.80;99.90;;;;;;5051965;28;20731;-56
2023/01/21 07:23:59;;;;;;;28.30;12.75;;;-1.70;99.90;;;;;;5049264;28;20413;-55
2023/01/21 07:26:25;;;;;;;34.38;12.65;;;-1.60;1.00;;;;;;5044105;28;20909;-55
2023/01/21 07:28:51;;;;;;;30.38;12.25;;;-1.60;1.00;;;;;;5052659;28;20451;-55
2023/01/21 07:31:16;;;;;;;32.55;11.90;;;-1.60;99.90;;;;;;5051863;28;20809;-55
2023/01/21 07:33:42;;;;;;;30.57;11.70;;;-1.70;99.90;;;;;;5050640;28;20870;-55
2023/01/21 07:36:08;;;;;;;27.10;12.13;;;-1.60;99.90;;;;;;5050150;28;20389;-55
2023/01/21 07:38:33;;;;;;;28.85;11.50;;;-1.50;99.90;;;;;;5052181;28;20386;-55
2023/01/21 07:40:59;;;;;;;24.00;11.13;;;-1.50;1.00;;;;;;5041994;28;20864;-55
2023/01/21 07:43:26;;;;;;;24.92;11.43;;;-1.40;99.90;;;;;;5036335;28;20422;-55
2023/01/21 07:45:53;;;;;;;24.40;10.47;;;-1.50;99.90;;;;;;5032724;28;20867;-55
2023/01/21 07:48:19;;;;;;;27.10;12.23;;;-1.40;1.00;;;;;;5056864;28;20413;-55
2023/01/21 07:50:44;;;;;;;24.15;10.48;;;-1.60;99.90;;;;;;5071835;28;20404;-55
2023/01/21 07:53:11;;;;;;;25.93;11.77;;;-1.60;1.00;;;;;;5071543;28;20383;-55
2023/01/21 07:55:37;;;;;;;25.48;12.15;;;-1.60;1.00;;;;;;5057140;28;20423;-55
2023/01/21 07:58:03;;;;;;;27.85;10.90;;;-1.40;1.00;;;;;;5045422;28;20763;-55
2023/01/21 08:00:28;;;;;;;29.23;12.07;;;-1.40;66.10;;;;;;5051523;28;20794;-55
2023/01/21 08:02:55;;;;;;;29.33;11.47;;;-1.40;1.00;;;;;;5051773;28;20515;-56
2023/01/21 08:05:21;;;;;;;46.78;16.70;;;-1.20;73.10;;;;;;5051431;28;20388;-55
2023/01/21 08:07:47;;;;;;;30.70;12.90;;;-1.20;1.00;;;;;;5051576;28;20520;-56
2023/01/21 08:10:14;;;;;;;32.30;12.57;;;-1.10;1.00;;;;;;5052143;28;20476;-57
2023/01/21 08:12:40;;;;;;;29.10;13.35;;;-0.80;1.00;;;;;;5054107;28;20395;-57
2023/01/21 08:15:07;;;;;;;24.95;11.80;;;-1.20;1.00;;;;;;5050067;28;20379;-57
2023/01/21 08:17:33;;;;;;;25.25;11.13;;;-1.10;1.00;;;;;;5053175;28;20385;-57
2023/01/21 08:19:58;;;;;;;26.33;11.13;;;-1.00;99.90;;;;;;5053534;28;20389;-57
2023/01/21 08:22:24;;;;;;;28.80;13.40;;;-0.70;1.00;;;;;;5052354;28;20393;-57
2023/01/21 08:24:50;;;;;;;28.27;12.90;;;-0.70;99.90;;;;;;5053867;28;20492;-57
2023/01/21 08:27:16;;;;;;;30.55;14.82;;;-0.50;1.00;;;;;;5053313;28;20869;-57
2023/01/21 08:29:41;;;;;;;27.92;12.88;;;-0.40;1.00;;;;;;5052994;28;20401;-57
2023/01/21 08:32:07;;;;;;;26.47;12.17;;;-0.20;99.90;;;;;;5052315;28;20477;-57
2023/01/21 08:34:33;;;;;;;26.03;11.70;;;-0.20;99.90;;;;;;5049981;28;20378;-56
2023/01/21 08:36:58;;;;;;;24.42;11.93;;;0.00;1.00;;;;;;5051428;28;20800;-57
2023/01/21 08:39:24;;;;;;;23.43;10.80;;;0.10;1.00;;;;;;5048708;28;20492;-57
2023/01/21 08:41:49;;;;;;;23.47;11.97;;;0.10;99.90;;;;;;5051231;28;20381;-56
2023/01/21 08:44:15;;;;;;;21.90;10.07;;;0.10;99.90;;;;;;5050443;28;20382;-56
2023/01/21 08:46:40;;;;;;;26.17;11.70;;;0.10;99.90;;;;;;5050918;28;20378;-57
2023/01/21 08:49:06;;;;;;;26.23;12.40;;;0.30;99.90;;;;;;5050185;28;20409;-56
2023/01/21 08:51:32;;;;;;;24.75;11.32;;;0.40;99.90;;;;;;5050585;28;20412;-57
2023/01/21 08:53:58;;;;;;;27.60;11.63;;;0.40;1.00;;;;;;5050736;28;20451;-57
2023/01/21 08:56:23;;;;;;;29.10;11.50;;;0.50;1.00;;;;;;5049741;28;20904;-57
2023/01/21 08:58:53;;;;;;;25.35;11.80;;;0.50;1.00;;;;;;5050728;28;20386;-57
2023/01/21 09:01:19;;;;;;;24.73;10.50;;;1.50;1.00;;;;;;5050010;28;20370;-57
2023/01/21 09:03:45;;;;;;;25.60;10.13;;;0.40;1.00;;;;;;5049978;28;20377;-56
2023/01/21 09:06:11;;;;;;;25.10;11.20;;;0.40;1.00;;;;;;5049825;28;20949;-56
2023/01/21 09:08:36;;;;;;;22.35;9.80;;;0.40;1.00;;;;;;5048905;28;20459;-56
2023/01/21 09:11:03;;;;;;;22.47;9.33;;;0.50;1.00;;;;;;5050705;28;20381;-57
2023/01/21 09:13:34;;;;;;;19.45;9.20;;;0.50;1.00;;;;;;5050081;28;20377;-57
2023/01/21 09:16:00;;;;;;;27.40;10.20;;;0.50;1.00;;;;;;5050979;28;20464;-57
2023/01/21 09:18:26;;;;;;;24.10;10.03;;;0.60;1.00;;;;;;5048968;28;20386;-58
2023/01/21 09:20:52;;;;;;;24.23;10.67;;;0.70;1.00;;;;;;5050382;28;20380;-57
2023/01/21 09:23:24;;;;;;;22.23;9.98;;;0.80;1.00;;;;;;5049571;28;20416;-58
2023/01/21 09:25:51;;;;;;;22.83;10.52;;;0.80;1.00;;;;;;5049888;28;20412;-58
2023/01/21 09:28:17;;;;;;;22.05;9.18;;;1.10;1.00;;;;;;5049595;28;20439;-57
2023/01/21 09:30:42;;;;;;;23.87;10.13;;;0.80;1.00;;;;;;5050458;28;20463;-57
2023/01/21 09:33:08;;;;;;;24.20;10.77;;;0.90;1.00;;;;;;5049674;28;20382;-58
2023/01/21 09:35:34;;;;;;;26.20;10.63;;;0.90;1.00;;;;;;5050084;28;20382;-57
2023/01/21 09:37:59;;;;;;;22.37;9.37;;;0.90;1.00;;;;;;5050068;28;20792;-58
2023/01/21 09:40:25;;;;;;;22.43;9.03;;;0.60;1.00;;;;;;5049487;28;20377;-57
2023/01/21 09:42:50;;;;;;;26.08;10.35;;;0.50;1.00;;;;;;5050239;28;20381;-58
2023/01/21 09:45:18;;;;;;;27.73;11.90;;;0.70;1.00;;;;;;5049530;28;20460;-58
2023/01/21 09:47:45;;;;;;;19.88;9.15;;;0.80;1.00;;;;;;5050116;28;20386;-58
2023/01/21 09:50:13;;;;;;;28.38;10.98;;;0.80;1.00;;;;;;5049246;28;20448;-57
2023/01/21 09:52:47;;;;;;;24.77;11.07;;;0.70;1.00;;;;;;5050140;28;20386;-58
2023/01/21 09:55:12;;;;;;;29.27;12.52;;;0.90;1.00;;;;;;5048993;28;20401;-58
2023/01/21 09:58:14;;;;;;;27.80;11.48;;;1.80;1.00;;;;;;5049749;28;20405;-58
2023/01/21 10:00:40;;;;;;;22.55;9.32;;;1.10;1.00;;;;;;5049735;28;20378;-58
2023/01/21 10:03:18;;;;;;;22.30;10.40;;;1.00;1.00;;;;;;5049888;28;20900;-58
2023/01/21 10:06:08;;;;;;;24.05;10.90;;;1.00;1.00;;;;;;5050445;28;20370;-57
2023/01/21 10:08:57;;;;;;;23.30;9.88;;;1.10;1.00;;;;;;5049166;28;20441;-58
2023/01/21 10:11:45;;;;;;;23.00;9.20;;;1.10;1.00;;;;;;5049311;28;20381;-58
2023/01/21 10:14:38;;;;;;;25.27;10.60;;;1.10;1.00;;;;;;5048727;28;20392;-58
2023/01/21 10:17:39;;;;;;;17.35;9.63;;;1.20;1.00;;;;;;5049772;28;20440;-57
2023/01/21 10:20:10;;;;;;;23.20;9.10;;;1.20;1.00;;;;;;5036320;28;20455;-58
2023/01/21 10:22:41;;;;;;;20.77;10.82;;;1.10;1.00;;;;;;5049592;28;20385;-58
2023/01/21 10:25:19;;;;;;;28.47;11.90;;;1.70;1.00;;;;;;5064556;28;20465;-58
2023/01/21 10:27:45;;;;;;;25.95;11.45;;;1.10;1.00;;;;;;5069689;28;20384;-58
2023/01/21 10:30:35;;;;;;;24.93;10.43;;;1.00;1.00;;;;;;5052607;28;20399;-56
2023/01/21 10:33:00;;;;;;;22.70;9.20;;;1.10;1.00;;;;;;5053514;28;20437;-58
2023/01/21 10:35:50;;;;;;;20.07;9.33;;;0.90;1.00;;;;;;5056981;28;20431;-58
2023/01/21 10:38:24;;;;;;;23.15;10.15;;;0.80;23.90;;;;;;5060468;28;20387;-58
2023/01/21 10:41:22;;;;;;;26.15;10.88;;;0.80;99.90;;;;;;5045514;28;20864;-58
2023/01/21 10:44:02;;;;;;;23.50;10.55;;;0.80;99.90;;;;;;5035562;28;20409;-57
2023/01/21 10:46:49;;;;;;;22.70;11.27;;;0.90;99.90;;;;;;5035718;28;20883;-58
2023/01/21 10:49:33;;;;;;;21.47;10.63;;;1.00;63.50;;;;;;5035076;28;20464;-57
2023/01/21 10:52:04;;;;;;;20.77;9.53;;;1.00;1.00;;;;;;5035908;28;20403;-58
2023/01/21 10:54:46;;;;;;;21.98;10.13;;;1.10;13.70;;;;;;5040033;28;20409;-57
2023/01/21 10:57:24;;;;;;;25.47;9.90;;;1.10;1.00;;;;;;5074767;28;20376;-58
2023/01/21 10:59:52;;;;;;;23.75;9.50;;;1.00;1.00;;;;;;5075493;28;20383;-58
2023/01/21 11:02:27;;;;;;;23.92;9.98;;;1.00;1.00;;;;;;5075326;28;20379;-57
2023/01/21 11:04:57;;;;;;;21.90;9.50;;;1.00;1.00;;;;;;5065413;28;20389;-57
2023/01/21 11:07:23;;;;;;;22.20;10.13;;;1.00;1.00;;;;;;5035440;28;20423;-58
2023/01/21 11:09:49;;;;;;;23.13;9.82;;;1.00;1.00;;;;;;5035631;28;20471;-57
2023/01/21 11:12:19;;;;;;;21.92;8.82;;;1.10;1.00;;;;;;5035010;28;20391;-58
2023/01/21 11:14:56;;;;;;;19.90;8.95;;;0.90;1.00;;;;;;5049021;28;20775;-58
2023/01/21 11:17:33;;;;;;;22.63;9.77;;;1.20;1.00;;;;;;5053707;28;20862;-58
2023/01/21 11:20:02;;;;;;;22.90;9.50;;;1.00;1.00;;;;;;5055296;28;20492;-58
2023/01/21 11:22:31;;;;;;;22.23;9.52;;;1.10;1.00;;;;;;5055432;28;20405;-58
2023/01/21 11:24:58;;;;;;;16.98;8.02;;;1.20;1.00;;;;;;5055098;28;20515;-58
2023/01/21 11:27:36;;;;;;;21.65;7.93;;;0.90;1.00;;;;;;5055199;28;20389;-59
2023/01/21 11:30:03;;;;;;;24.02;9.45;;;2.00;1.00;;;;;;5055635;28;20424;-58
2023/01/21 11:32:30;;;;;;;16.83;6.97;;;0.80;1.00;;;;;;5055057;28;20744;-58
2023/01/21 11:35:20;;;;;;;19.75;8.25;;;0.50;99.90;;;;;;5055513;28;20389;-58
2023/01/21 11:37:45;;;;;;;22.15;9.25;;;0.60;99.90;;;;;;5055849;28;20413;-58
2023/01/21 11:40:24;;;;;;;23.33;10.63;;;0.70;40.70;;;;;;5055167;28;20409;-58
2023/01/21 11:42:55;;;;;;;21.88;9.48;;;0.90;99.90;;;;;;5052681;28;20414;-58
2023/01/21 11:45:29;;;;;;;18.60;8.05;;;1.20;1.00;;;;;;5051677;28;20397;-58
2023/01/21 11:47:55;;;;;;;20.00;8.55;;;1.10;1.00;;;;;;5052439;28;20541;-58
2023/01/21 11:50:27;;;;;;;20.40;8.85;;;1.00;1.00;;;;;;5051508;28;20535;-57
2023/01/21 11:53:10;;;;;;;20.25;8.35;;;1.10;1.00;;;;;;5051176;28;20397;-58
2023/01/21 11:55:53;;;;;;;17.92;8.80;;;1.00;1.00;;;;;;5051897;28;20395;-58
2023/01/21 11:58:22;;;;;;;21.95;8.32;;;1.00;1.00;;;;;;5051433;28;20393;-58
2023/01/21 12:00:50;;;;;;;18.55;7.78;;;0.80;1.00;;;;;;5052067;28;20378;-56
2023/01/21 12:03:19;;;;;;;17.98;7.47;;;0.70;1.00;;;;;;5051283;28;20392;-57
2023/01/21 12:05:48;;;;;;;21.58;8.50;;;0.80;19.70;;;;;;5051905;28;20386;-57
2023/01/21 12:08:25;;;;;;;22.52;8.27;;;0.80;1.00;;;;;;5051387;28;20443;-57
2023/01/21 12:10:53;;;;;;;23.00;8.97;;;0.60;34.80;;;;;;5051945;28;20369;-57
2023/01/21 12:13:24;;;;;;;24.40;9.73;;;0.70;99.90;;;;;;5051075;28;20393;-58
2023/01/21 12:16:19;;;;;;;19.65;8.63;;;0.80;69.60;;;;;;5052501;28;20377;-59
2023/01/21 12:19:09;;;;;;;20.13;8.50;;;0.70;1.00;;;;;;5043530;28;20846;-57
2023/01/21 12:21:53;;;;;;;21.77;9.00;;;0.70;87.40;;;;;;5051392;28;20385;-58
2023/01/21 12:24:39;;;;;;;18.92;8.13;;;0.60;99.90;;;;;;5050308;28;20401;-57
2023/01/21 12:27:27;;;;;;;20.10;8.90;;;0.50;99.90;;;;;;5051490;28;20393;-59
2023/01/21 12:30:25;;;;;;;21.17;8.77;;;0.60;1.00;;;;;;5051090;28;20459;-58
2023/01/21 12:32:57;;;;;;;23.55;9.98;;;0.70;1.00;;;;;;5017712;28;20455;-58
2023/01/21 12:35:32;;;;;;;20.23;7.85;;;0.70;99.90;;;;;;5050700;28;20389;-58
2023/01/21 12:38:05;;;;;;;20.10;8.50;;;0.80;99.90;;;;;;5051400;28;20790;-58
2023/01/21 12:40:39;;;;;;;22.92;9.40;;;0.80;99.90;;;;;;5050655;28;20389;-58
2023/01/21 12:43:21;;;;;;;26.63;10.10;;;0.80;99.90;;;;;;5051197;28;20378;-58
2023/01/21 12:46:09;;;;;;;19.63;9.13;;;0.90;99.90;;;;;;5051308;28;20723;-58
2023/01/21 12:48:47;;;;;;;19.48;8.65;;;0.90;99.90;;;;;;5050631;28;20409;-58
2023/01/21 12:51:26;;;;;;;21.27;9.10;;;0.90;1.00;;;;;;5051237;28;20388;-57
2023/01/21 12:54:13;;;;;;;22.88;10.25;;;0.90;1.00;;;;;;5050088;28;20370;-58
2023/01/21 12:56:55;;;;;;;25.70;10.17;;;0.90;99.90;;;;;;5051467;28;20378;-57
2023/01/21 12:59:29;;;;;;;26.73;11.07;;;0.90;99.90;;;;;;5041103;28;20406;-58
2023/01/21 13:02:16;;;;;;;22.00;10.70;;;0.90;1.00;;;;;;5043675;28;20385;-57
2023/01/21 13:05:07;;;;;;;20.27;9.30;;;1.10;1.00;;;;;;5036320;28;20385;-58